createdAt,value
2019-05-29T00:00:54.311Z,1009.15
2019-05-29T00:01:54.313Z,1009.12
2019-05-29T00:02:54.281Z,1009.16
2019-05-29T00:03:54.271Z,1009.18
2019-05-29T00:04:54.251Z,1009.18
2019-05-29T00:05:54.244Z,1009.21
2019-05-29T00:06:54.229Z,1009.21
2019-05-29T00:07:54.280Z,1009.24
2019-05-29T00:08:54.210Z,1009.23
2019-05-29T00:09:54.222Z,1009.22
2019-05-29T00:10:54.184Z,1009.21
2019-05-29T00:11:54.174Z,1009.25
2019-05-29T00:12:54.169Z,1009.27
2019-05-29T00:13:54.245Z,1009.24
2019-05-29T00:14:54.145Z,1009.24
2019-05-29T00:15:54.133Z,1009.22
2019-05-29T00:16:54.116Z,1009.23
2019-05-29T00:17:54.129Z,1009.27
2019-05-29T00:18:55.190Z,1009.32
2019-05-29T00:19:54.161Z,1009.37
2019-05-29T00:20:54.090Z,1009.36
2019-05-29T00:21:54.061Z,1009.38
2019-05-29T00:22:54.051Z,1009.41
2019-05-29T00:23:54.043Z,1009.42
2019-05-29T00:24:54.031Z,1009.42
2019-05-29T00:25:54.106Z,1009.42
2019-05-29T00:26:54.010Z,1009.41
2019-05-29T00:27:53.993Z,1009.44
2019-05-29T00:28:53.983Z,1009.41
2019-05-29T00:29:54.064Z,1009.39
2019-05-29T00:30:53.965Z,1009.47
2019-05-29T00:31:53.952Z,1009.49
2019-05-29T00:32:53.938Z,1009.48
2019-05-29T00:33:53.929Z,1009.55
2019-05-29T00:34:53.964Z,1009.52
2019-05-29T00:35:53.904Z,1009.53
2019-05-29T00:36:53.898Z,1009.49
2019-05-29T00:37:53.883Z,1009.51
2019-05-29T00:38:53.892Z,1009.50
2019-05-29T00:39:53.865Z,1009.54
2019-05-29T00:40:53.963Z,1009.55
2019-05-29T00:41:53.840Z,1009.54
2019-05-29T00:42:53.834Z,1009.54
2019-05-29T00:43:53.823Z,1009.53
2019-05-29T00:44:53.810Z,1009.57
2019-05-29T00:45:53.821Z,1009.48
2019-05-29T00:46:53.787Z,1009.53
2019-05-29T00:47:53.769Z,1009.47
2019-05-29T00:48:53.762Z,1009.50
2019-05-29T00:49:53.751Z,1009.49
2019-05-29T00:50:53.762Z,1009.51
2019-05-29T00:51:53.723Z,1009.51
2019-05-29T00:52:53.712Z,1009.51
2019-05-29T00:53:53.702Z,1009.53
2019-05-29T00:54:53.691Z,1009.54
2019-05-29T00:55:53.718Z,1009.52
2019-05-29T00:56:53.709Z,1009.56
2019-05-29T00:57:53.657Z,1009.58
2019-05-29T00:58:53.741Z,1009.63
2019-05-29T00:59:53.632Z,1009.61
2019-05-29T01:00:53.637Z,1009.65
2019-05-29T01:01:53.636Z,1009.71
2019-05-29T01:02:53.604Z,1009.74
2019-05-29T01:03:53.592Z,1009.74
2019-05-29T01:04:53.695Z,1009.72
2019-05-29T01:05:53.571Z,1009.75
2019-05-29T01:06:53.562Z,1009.70
2019-05-29T01:07:53.543Z,1009.73
2019-05-29T01:08:53.624Z,1009.76
2019-05-29T01:09:53.534Z,1009.79
2019-05-29T01:10:53.509Z,1009.84
2019-05-29T01:11:53.504Z,1009.83
2019-05-29T01:12:53.605Z,1009.82
2019-05-29T01:13:53.482Z,1009.85
2019-05-29T01:14:53.465Z,1009.90
2019-05-29T01:15:53.455Z,1009.93
2019-05-29T01:16:53.447Z,1009.90
2019-05-29T01:17:53.430Z,1009.94
2019-05-29T01:18:53.512Z,1009.97
2019-05-29T01:19:53.491Z,1009.99
2019-05-29T01:20:53.403Z,1010.02
2019-05-29T01:21:53.386Z,1010.05
2019-05-29T01:22:53.384Z,1010.05
2019-05-29T01:23:53.453Z,1010.06
2019-05-29T01:24:53.410Z,1010.02
2019-05-29T01:25:53.434Z,1010.00
2019-05-29T01:26:53.334Z,1010.01
2019-05-29T01:27:53.323Z,1010.01
2019-05-29T01:28:53.413Z,1009.96
2019-05-29T01:29:53.300Z,1009.97
2019-05-29T01:30:53.295Z,1009.98
2019-05-29T01:31:53.275Z,1010.04
2019-05-29T01:32:53.261Z,1010.05
2019-05-29T01:33:53.261Z,1010.06
2019-05-29T01:34:53.331Z,1010.13
2019-05-29T01:35:53.232Z,1010.17
2019-05-29T01:36:53.223Z,1010.12
2019-05-29T01:37:53.206Z,1010.20
2019-05-29T01:38:53.209Z,1010.21
2019-05-29T01:39:53.292Z,1010.17
2019-05-29T01:40:53.174Z,1010.19
2019-05-29T01:41:53.167Z,1010.14
2019-05-29T01:42:53.162Z,1010.27
2019-05-29T01:43:53.144Z,1010.24
2019-05-29T01:45:06.695Z,1010.33
2019-05-29T01:45:54.212Z,1010.31
2019-05-29T01:46:53.109Z,1010.39
2019-05-29T01:47:53.124Z,1010.38
2019-05-29T01:48:53.086Z,1010.47
2019-05-29T01:49:53.077Z,1010.41
2019-05-29T01:50:53.098Z,1010.41
2019-05-29T01:51:53.060Z,1010.43
2019-05-29T01:52:53.044Z,1010.41
2019-05-29T01:53:53.033Z,1010.44
2019-05-29T01:54:53.019Z,1010.45
2019-05-29T01:55:53.099Z,1010.44
2019-05-29T01:56:52.996Z,1010.45
2019-05-29T01:57:52.989Z,1010.45
2019-05-29T01:58:53.017Z,1010.48
2019-05-29T01:59:52.968Z,1010.51
2019-05-29T02:00:52.953Z,1010.50
2019-05-29T02:01:52.977Z,1010.51
2019-05-29T02:02:52.930Z,1010.48
2019-05-29T02:03:52.952Z,1010.50
2019-05-29T02:04:52.913Z,1010.50
2019-05-29T02:05:52.937Z,1010.54
2019-05-29T02:06:52.925Z,1010.47
2019-05-29T02:07:52.918Z,1010.53
2019-05-29T02:08:52.868Z,1010.52
2019-05-29T02:09:52.867Z,1010.58
2019-05-29T02:10:52.841Z,1010.57
2019-05-29T02:11:52.830Z,1010.62
2019-05-29T02:12:52.924Z,1010.60
2019-05-29T02:13:52.813Z,1010.62
2019-05-29T02:14:52.804Z,1010.63
2019-05-29T02:15:52.795Z,1010.64
2019-05-29T02:16:52.784Z,1010.62
2019-05-29T02:17:52.775Z,1010.60
2019-05-29T02:18:52.850Z,1010.61
2019-05-29T02:19:52.744Z,1010.61
2019-05-29T02:20:52.734Z,1010.66
2019-05-29T02:21:52.731Z,1010.68
2019-05-29T02:22:52.712Z,1010.70
2019-05-29T02:23:52.794Z,1010.70
2019-05-29T02:24:52.693Z,1010.76
2019-05-29T02:25:52.682Z,1010.73
2019-05-29T02:26:52.709Z,1010.78
2019-05-29T02:27:52.659Z,1010.82
2019-05-29T02:28:52.739Z,1010.82
2019-05-29T02:29:52.637Z,1010.83
2019-05-29T02:30:52.629Z,1010.83
2019-05-29T02:31:52.625Z,1010.86
2019-05-29T02:32:52.608Z,1010.80
2019-05-29T02:33:52.682Z,1010.87
2019-05-29T02:34:52.677Z,1010.82
2019-05-29T02:35:52.570Z,1010.84
2019-05-29T02:36:52.567Z,1010.86
2019-05-29T02:37:52.546Z,1010.87
2019-05-29T02:38:52.542Z,1010.92
2019-05-29T02:39:52.531Z,1010.94
2019-05-29T02:40:52.635Z,1010.92
2019-05-29T02:41:52.506Z,1011.00
2019-05-29T02:42:52.498Z,1010.96
2019-05-29T02:43:52.486Z,1010.97
2019-05-29T02:44:52.563Z,1011.03
2019-05-29T02:45:54.380Z,1011.03
2019-05-29T02:46:52.449Z,1011.03
2019-05-29T02:47:52.436Z,1011.01
2019-05-29T02:48:52.429Z,1010.95
2019-05-29T02:49:52.506Z,1010.97
2019-05-29T02:50:52.442Z,1010.94
2019-05-29T02:51:52.397Z,1010.91
2019-05-29T02:52:52.390Z,1010.93
2019-05-29T02:53:52.370Z,1010.94
2019-05-29T02:54:52.364Z,1010.91
2019-05-29T02:55:52.353Z,1010.93
2019-05-29T02:56:52.386Z,1010.96
2019-05-29T02:57:52.467Z,1010.97
2019-05-29T02:58:52.314Z,1011.03
2019-05-29T02:59:52.303Z,1011.05
2019-05-29T03:00:52.295Z,1011.08
2019-05-29T03:01:52.287Z,1011.16
2019-05-29T03:02:52.272Z,1011.14
2019-05-29T03:03:52.352Z,1011.20
2019-05-29T03:04:52.252Z,1011.24
2019-05-29T03:05:52.244Z,1011.34
2019-05-29T03:06:52.243Z,1011.30
2019-05-29T03:07:52.219Z,1011.31
2019-05-29T03:08:52.207Z,1011.31
2019-05-29T03:09:52.193Z,1011.31
2019-05-29T03:10:52.191Z,1011.34
2019-05-29T03:11:52.262Z,1011.35
2019-05-29T03:12:52.169Z,1011.33
2019-05-29T03:13:52.154Z,1011.33
2019-05-29T03:14:52.137Z,1011.40
2019-05-29T03:16:08.523Z,1011.46
2019-05-29T03:16:53.207Z,1011.47
2019-05-29T03:17:52.672Z,1011.53
2019-05-29T03:18:52.098Z,1011.55
2019-05-29T03:19:52.085Z,1011.56
2019-05-29T03:20:52.083Z,1011.65
2019-05-29T03:21:52.180Z,1011.70
2019-05-29T03:22:52.052Z,1011.61
2019-05-29T03:23:52.133Z,1011.68
2019-05-29T03:24:52.029Z,1011.71
2019-05-29T03:25:52.020Z,1011.72
2019-05-29T03:26:52.003Z,1011.73
2019-05-29T03:27:51.997Z,1011.80
2019-05-29T03:28:52.095Z,1011.79
2019-05-29T03:29:52.015Z,1011.77
2019-05-29T03:30:52.005Z,1011.79
2019-05-29T03:31:51.986Z,1011.79
2019-05-29T03:32:51.949Z,1011.83
2019-05-29T03:33:51.929Z,1011.82
2019-05-29T03:34:51.921Z,1011.82
2019-05-29T03:35:51.946Z,1011.85
2019-05-29T03:36:51.904Z,1011.92
2019-05-29T03:37:51.886Z,1011.90
2019-05-29T03:38:51.874Z,1011.97
2019-05-29T03:39:51.953Z,1011.94
2019-05-29T03:40:51.853Z,1011.96
2019-05-29T03:41:51.837Z,1011.98
2019-05-29T03:42:51.832Z,1012.04
2019-05-29T03:43:51.818Z,1012.02
2019-05-29T03:44:51.879Z,1012.00
2019-05-29T03:45:51.798Z,1012.01
2019-05-29T03:46:51.802Z,1012.09
2019-05-29T03:47:51.779Z,1012.10
2019-05-29T03:48:51.761Z,1012.11
2019-05-29T03:49:51.837Z,1012.15
2019-05-29T03:50:51.740Z,1012.14
2019-05-29T03:51:51.724Z,1012.19
2019-05-29T03:52:51.722Z,1012.22
2019-05-29T03:53:51.719Z,1012.26
2019-05-29T03:54:51.699Z,1012.28
2019-05-29T03:55:51.796Z,1012.29
2019-05-29T03:56:51.677Z,1012.28
2019-05-29T03:57:51.660Z,1012.30
2019-05-29T03:58:51.651Z,1012.31
2019-05-29T03:59:51.646Z,1012.35
2019-05-29T04:00:51.673Z,1012.33
2019-05-29T04:01:58.766Z,1012.39
2019-05-29T04:02:51.611Z,1012.40
2019-05-29T04:03:51.609Z,1012.37
2019-05-29T04:04:51.589Z,1012.43
2019-05-29T04:05:51.572Z,1012.43
2019-05-29T04:06:51.566Z,1012.43
2019-05-29T04:07:51.550Z,1012.45
2019-05-29T04:08:51.650Z,1012.46
2019-05-29T04:09:51.525Z,1012.47
2019-05-29T04:10:51.515Z,1012.48
2019-05-29T04:11:51.509Z,1012.44
2019-05-29T04:12:51.499Z,1012.49
2019-05-29T04:13:51.487Z,1012.48
2019-05-29T04:14:51.497Z,1012.53
2019-05-29T04:15:51.529Z,1012.54
2019-05-29T04:16:59.715Z,1012.60
2019-05-29T04:17:52.435Z,1012.64
2019-05-29T04:18:51.442Z,1012.64
2019-05-29T04:19:51.416Z,1012.65
2019-05-29T04:20:51.410Z,1012.67
2019-05-29T04:21:51.487Z,1012.71
2019-05-29T04:22:51.380Z,1012.68
2019-05-29T04:23:51.370Z,1012.72
2019-05-29T04:24:51.400Z,1012.73
2019-05-29T04:25:51.355Z,1012.77
2019-05-29T04:26:51.447Z,1012.81
2019-05-29T04:27:51.333Z,1012.78
2019-05-29T04:28:51.323Z,1012.83
2019-05-29T04:29:51.304Z,1012.79
2019-05-29T04:30:51.298Z,1012.79
2019-05-29T04:31:51.345Z,1012.88
2019-05-29T04:32:51.285Z,1012.86
2019-05-29T04:33:51.266Z,1012.86
2019-05-29T04:34:51.273Z,1012.87
2019-05-29T04:35:51.249Z,1012.88
2019-05-29T04:36:51.343Z,1012.89
2019-05-29T04:37:51.226Z,1012.88
2019-05-29T04:38:51.209Z,1012.90
2019-05-29T04:39:51.195Z,1012.90
2019-05-29T04:40:51.189Z,1012.93
2019-05-29T04:41:51.177Z,1012.97
2019-05-29T04:42:51.234Z,1012.99
2019-05-29T04:43:51.183Z,1013.03
2019-05-29T04:44:51.143Z,1012.96
2019-05-29T04:45:51.129Z,1012.97
2019-05-29T04:47:07.081Z,1013.02
2019-05-29T04:47:52.115Z,1013.09
2019-05-29T04:48:51.144Z,1013.07
2019-05-29T04:49:51.090Z,1013.09
2019-05-29T04:50:51.086Z,1013.11
2019-05-29T04:51:51.060Z,1013.08
2019-05-29T04:52:51.122Z,1013.11
2019-05-29T04:53:51.045Z,1013.13
2019-05-29T04:54:51.123Z,1013.10
2019-05-29T04:55:51.014Z,1013.13
2019-05-29T04:56:51.036Z,1013.14
2019-05-29T04:57:51.126Z,1013.17
2019-05-29T04:58:51.007Z,1013.21
2019-05-29T04:59:50.971Z,1013.18
2019-05-29T05:00:59.201Z,1013.20
2019-05-29T05:01:51.948Z,1013.22
2019-05-29T05:02:50.944Z,1013.23
2019-05-29T05:03:51.049Z,1013.25
2019-05-29T05:04:50.986Z,1013.24
2019-05-29T05:05:50.961Z,1013.31
2019-05-29T05:06:50.895Z,1013.28
2019-05-29T05:07:50.880Z,1013.28
2019-05-29T05:08:50.989Z,1013.32
2019-05-29T05:09:50.862Z,1013.35
2019-05-29T05:10:50.847Z,1013.42
2019-05-29T05:11:50.835Z,1013.41
2019-05-29T05:12:50.839Z,1013.42
2019-05-29T05:13:50.818Z,1013.50
2019-05-29T05:14:50.877Z,1013.48
2019-05-29T05:15:50.864Z,1013.49
2019-05-29T05:16:50.789Z,1013.49
2019-05-29T05:17:50.775Z,1013.52
2019-05-29T05:18:50.761Z,1013.60
2019-05-29T05:19:50.754Z,1013.55
2019-05-29T05:20:50.896Z,1013.60
2019-05-29T05:21:50.727Z,1013.54
2019-05-29T05:22:50.714Z,1013.58
2019-05-29T05:23:50.710Z,1013.62
2019-05-29T05:24:50.695Z,1013.62
2019-05-29T05:25:50.794Z,1013.58
2019-05-29T05:26:50.684Z,1013.62
2019-05-29T05:27:50.656Z,1013.66
2019-05-29T05:28:50.687Z,1013.70
2019-05-29T05:29:50.635Z,1013.68
2019-05-29T05:30:50.627Z,1013.68
2019-05-29T05:31:50.732Z,1013.70
2019-05-29T05:32:50.609Z,1013.72
2019-05-29T05:33:50.595Z,1013.77
2019-05-29T05:34:50.580Z,1013.73
2019-05-29T05:35:50.569Z,1013.79
2019-05-29T05:36:50.648Z,1013.85
2019-05-29T05:37:50.552Z,1013.84
2019-05-29T05:38:50.625Z,1013.83
2019-05-29T05:39:50.528Z,1013.81
2019-05-29T05:40:50.519Z,1013.88
2019-05-29T05:41:50.570Z,1013.86
2019-05-29T05:42:50.491Z,1013.90
2019-05-29T05:43:50.478Z,1013.86
2019-05-29T05:44:50.474Z,1013.89
2019-05-29T05:45:50.547Z,1013.88
2019-05-29T05:46:50.537Z,1013.86
2019-05-29T05:47:57.283Z,1013.90
2019-05-29T05:48:51.424Z,1013.90
2019-05-29T05:49:50.417Z,1013.97
2019-05-29T05:50:51.315Z,1013.97
2019-05-29T05:51:50.408Z,1013.99
2019-05-29T05:52:50.446Z,1014.02
2019-05-29T05:53:50.377Z,1013.99
2019-05-29T05:54:50.361Z,1014.05
2019-05-29T05:55:50.350Z,1014.02
2019-05-29T05:56:53.456Z,1014.07
2019-05-29T05:57:50.414Z,1014.05
2019-05-29T05:58:50.319Z,1014.10
2019-05-29T05:59:50.303Z,1014.07
2019-05-29T06:00:50.294Z,1014.07
2019-05-29T06:01:50.395Z,1014.11
2019-05-29T06:02:52.263Z,1014.16
2019-05-29T06:03:50.285Z,1014.11
2019-05-29T06:04:50.253Z,1014.14
2019-05-29T06:05:50.245Z,1014.18
2019-05-29T06:06:50.221Z,1014.19
2019-05-29T06:07:50.210Z,1014.20
2019-05-29T06:08:50.207Z,1014.25
2019-05-29T06:09:50.214Z,1014.24
2019-05-29T06:10:51.269Z,1014.32
2019-05-29T06:11:50.173Z,1014.34
2019-05-29T06:12:50.171Z,1014.37
2019-05-29T06:13:50.163Z,1014.40
2019-05-29T06:14:50.225Z,1014.46
2019-05-29T06:15:50.123Z,1014.48
2019-05-29T06:16:50.115Z,1014.38
2019-05-29T06:18:10.124Z,1014.42
2019-05-29T06:18:51.114Z,1014.44
2019-05-29T06:19:50.268Z,1014.44
2019-05-29T06:20:50.407Z,1014.45
2019-05-29T06:21:50.173Z,1014.49
2019-05-29T06:22:50.049Z,1014.47
2019-05-29T06:23:50.163Z,1014.45
2019-05-29T06:24:50.260Z,1014.45
2019-05-29T06:25:50.016Z,1014.47
2019-05-29T06:26:50.029Z,1014.46
2019-05-29T06:27:49.990Z,1014.41
2019-05-29T06:28:49.983Z,1014.46
2019-05-29T06:29:49.972Z,1014.46
2019-05-29T06:30:49.999Z,1014.48
2019-05-29T06:31:50.041Z,1014.56
2019-05-29T06:32:49.941Z,1014.54
2019-05-29T06:33:49.931Z,1014.51
2019-05-29T06:34:49.921Z,1014.55
2019-05-29T06:35:49.983Z,1014.55
2019-05-29T06:36:54.899Z,1014.56
2019-05-29T06:37:49.876Z,1014.58
2019-05-29T06:38:49.873Z,1014.57
2019-05-29T06:39:49.863Z,1014.60
2019-05-29T06:40:49.845Z,1014.55
2019-05-29T06:41:49.860Z,1014.61
2019-05-29T06:42:49.831Z,1014.64
2019-05-29T06:43:49.817Z,1014.59
2019-05-29T06:44:50.174Z,1014.56
2019-05-29T06:45:49.817Z,1014.60
2019-05-29T06:46:49.788Z,1014.67
2019-05-29T06:47:49.799Z,1014.72
2019-05-29T06:48:59.322Z,1014.73
2019-05-29T06:49:50.745Z,1014.74
2019-05-29T06:50:49.741Z,1014.80
2019-05-29T06:51:49.727Z,1014.72
2019-05-29T06:52:50.025Z,1014.74
2019-05-29T06:53:49.703Z,1014.73
2019-05-29T06:54:51.354Z,1014.80
2019-05-29T06:55:54.018Z,1014.85
2019-05-29T06:56:50.666Z,1014.85
2019-05-29T06:57:49.678Z,1014.85
2019-05-29T06:58:49.665Z,1014.86
2019-05-29T06:59:49.636Z,1014.87
2019-05-29T07:00:49.716Z,1014.91
2019-05-29T07:01:49.722Z,1014.92
2019-05-29T07:02:49.602Z,1014.91
2019-05-29T07:03:49.608Z,1014.94
2019-05-29T07:04:49.869Z,1014.96
2019-05-29T07:05:52.337Z,1015.00
2019-05-29T07:06:49.561Z,1014.97
2019-05-29T07:07:49.654Z,1015.04
2019-05-29T07:08:50.322Z,1015.02
2019-05-29T07:09:49.522Z,1015.05
2019-05-29T07:10:49.529Z,1015.02
2019-05-29T07:11:49.507Z,1014.95
2019-05-29T07:12:49.491Z,1015.00
2019-05-29T07:13:50.580Z,1015.07
2019-05-29T07:14:49.537Z,1015.03
2019-05-29T07:15:49.476Z,1015.06
2019-05-29T07:16:55.597Z,1015.11
2019-05-29T07:17:50.435Z,1015.17
2019-05-29T07:19:24.235Z,1015.15
2019-05-29T07:20:02.337Z,1015.16
2019-05-29T07:20:50.404Z,1015.19
2019-05-29T07:21:49.396Z,1015.16
2019-05-29T07:22:49.393Z,1015.25
2019-05-29T07:23:49.377Z,1015.17
2019-05-29T07:24:49.450Z,1015.22
2019-05-29T07:25:49.351Z,1015.26
2019-05-29T07:26:49.340Z,1015.26
2019-05-29T07:27:49.330Z,1015.19
2019-05-29T07:29:07.277Z,1015.20
2019-05-29T07:29:50.392Z,1015.25
2019-05-29T07:30:59.675Z,1015.28
2019-05-29T07:31:50.368Z,1015.32
2019-05-29T07:32:56.946Z,1015.26
2019-05-29T07:33:50.260Z,1015.26
2019-05-29T07:35:02.357Z,1015.32
2019-05-29T07:35:50.324Z,1015.30
2019-05-29T07:36:49.228Z,1015.41
2019-05-29T07:37:49.231Z,1015.41
2019-05-29T07:39:00.464Z,1015.45
2019-05-29T07:39:50.194Z,1015.46
2019-05-29T07:40:50.157Z,1015.53
2019-05-29T07:41:49.259Z,1015.51
2019-05-29T07:42:55.164Z,1015.52
2019-05-29T07:43:50.222Z,1015.46
2019-05-29T07:44:49.142Z,1015.47
2019-05-29T07:45:49.132Z,1015.55
2019-05-29T07:46:49.237Z,1015.59
2019-05-29T07:47:49.111Z,1015.54
2019-05-29T07:48:50.375Z,1015.51
2019-05-29T07:49:50.334Z,1015.50
2019-05-29T07:50:49.075Z,1015.51
2019-05-29T07:51:49.189Z,1015.51
2019-05-29T07:52:49.382Z,1015.50
2019-05-29T07:53:49.073Z,1015.55
2019-05-29T07:54:49.958Z,1015.56
2019-05-29T07:55:49.163Z,1015.62
2019-05-29T07:56:49.104Z,1015.48
2019-05-29T07:57:49.051Z,1015.47
2019-05-29T07:59:00.710Z,1015.56
2019-05-29T07:59:49.971Z,1015.57
2019-05-29T08:01:09.624Z,1015.58
2019-05-29T08:01:50.048Z,1015.58
2019-05-29T08:02:49.513Z,1015.50
2019-05-29T08:03:49.714Z,1015.56
2019-05-29T08:04:49.792Z,1015.85
2019-05-29T08:05:51.558Z,1015.58
2019-05-29T08:06:54.187Z,1015.53
2019-05-29T08:07:49.976Z,1015.59
2019-05-29T08:08:49.542Z,1015.58
2019-05-29T08:09:49.828Z,1015.89
2019-05-29T08:10:49.740Z,1015.96
2019-05-29T08:11:50.132Z,1015.93
2019-05-29T08:12:54.337Z,1015.90
2019-05-29T08:13:50.085Z,1015.96
2019-05-29T08:14:50.164Z,1016.00
2019-05-29T08:15:57.587Z,1016.04
2019-05-29T08:16:50.124Z,1016.09
2019-05-29T08:17:50.162Z,1016.08
2019-05-29T08:18:52.022Z,1016.13
2019-05-29T08:20:05.387Z,1016.15
2019-05-29T08:20:50.336Z,1016.13
2019-05-29T08:21:48.737Z,1016.20
2019-05-29T08:22:48.813Z,1016.25
2019-05-29T08:23:48.713Z,1016.22
2019-05-29T08:24:49.454Z,1016.23
2019-05-29T08:25:49.607Z,1016.21
2019-05-29T08:26:48.971Z,1016.23
2019-05-29T08:27:48.984Z,1016.21
2019-05-29T08:28:48.913Z,1016.29
2019-05-29T08:29:48.880Z,1016.16
2019-05-29T08:30:54.361Z,1016.24
2019-05-29T08:31:50.915Z,1016.15
2019-05-29T08:32:49.253Z,1016.25
2019-05-29T08:33:48.999Z,1015.84
2019-05-29T08:34:49.088Z,1016.19
2019-05-29T08:35:57.607Z,1015.85
2019-05-29T08:37:05.466Z,1016.02
2019-05-29T08:37:49.563Z,1015.85
2019-05-29T08:38:49.306Z,1016.25
2019-05-29T08:39:49.558Z,1015.86
2019-05-29T08:40:49.547Z,1015.91
2019-05-29T08:42:19.291Z,1015.90
2019-05-29T08:42:49.579Z,1015.90
2019-05-29T08:43:48.519Z,1015.99
2019-05-29T08:44:50.076Z,1016.32
2019-05-29T08:45:49.636Z,1016.32
2019-05-29T08:47:06.355Z,1016.40
2019-05-29T08:47:49.774Z,1016.36
2019-05-29T08:48:48.455Z,1015.98
2019-05-29T08:49:52.511Z,1016.34
2019-05-29T08:50:49.973Z,1016.41
2019-05-29T08:51:48.408Z,1016.42
2019-05-29T08:52:48.405Z,1016.46
2019-05-29T08:53:48.826Z,1016.34
2019-05-29T08:54:48.383Z,1016.53
2019-05-29T08:55:49.027Z,1016.46
2019-05-29T08:56:48.438Z,1016.01
2019-05-29T08:57:48.519Z,1016.25
2019-05-29T08:58:48.452Z,1016.08
2019-05-29T08:59:48.505Z,1016.25
2019-05-29T09:00:51.890Z,1016.46
2019-05-29T09:01:52.327Z,1016.62
2019-05-29T09:02:49.302Z,1016.36
2019-05-29T09:03:48.909Z,1016.60
2019-05-29T09:04:49.813Z,1016.55
2019-05-29T09:06:04.933Z,1016.35
2019-05-29T09:06:49.306Z,1016.63
2019-05-29T09:07:49.821Z,1016.73
2019-05-29T09:08:49.935Z,1016.20
2019-05-29T09:09:49.072Z,1016.24
2019-05-29T09:10:49.480Z,1016.23
2019-05-29T09:11:49.917Z,1016.70
2019-05-29T09:12:56.691Z,1016.72
2019-05-29T09:13:49.180Z,1016.72
2019-05-29T09:14:48.207Z,1016.76
2019-05-29T09:15:48.246Z,1016.84
2019-05-29T09:16:48.244Z,1016.86
2019-05-29T09:17:48.133Z,1016.46
2019-05-29T09:18:48.124Z,1016.31
2019-05-29T09:19:48.796Z,1016.27
2019-05-29T09:21:01.886Z,1016.21
2019-05-29T09:21:49.182Z,1016.72
2019-05-29T09:22:48.085Z,1016.67
2019-05-29T09:23:48.076Z,1016.48
2019-05-29T09:24:48.067Z,1016.69
2019-05-29T09:25:48.056Z,1016.82
2019-05-29T09:26:48.103Z,1016.82
2019-05-29T09:27:48.147Z,1016.79
2019-05-29T09:28:48.034Z,1016.83
2019-05-29T09:29:48.009Z,1016.81
2019-05-29T09:30:48.166Z,1016.87
2019-05-29T09:31:47.995Z,1016.37
2019-05-29T09:32:50.879Z,1016.84
2019-05-29T09:33:48.063Z,1016.91
2019-05-29T09:34:47.957Z,1016.39
2019-05-29T09:35:47.954Z,1016.26
2019-05-29T09:36:47.982Z,1016.43
2019-05-29T09:37:47.926Z,1016.34
2019-05-29T09:38:48.209Z,1016.36
2019-05-29T09:39:47.921Z,1016.55
2019-05-29T09:40:47.899Z,1016.36
2019-05-29T09:41:47.885Z,1016.32
2019-05-29T09:42:47.889Z,1016.94
2019-05-29T09:43:58.284Z,1016.41
2019-05-29T09:44:48.861Z,1016.41
2019-05-29T09:45:47.846Z,1017.02
2019-05-29T09:46:47.830Z,1017.03
2019-05-29T09:47:47.821Z,1017.04
2019-05-29T09:48:50.064Z,1017.01
2019-05-29T09:49:47.837Z,1017.07
2019-05-29T09:50:50.497Z,1016.85
2019-05-29T09:51:47.785Z,1017.13
2019-05-29T09:52:47.777Z,1017.11
2019-05-29T09:53:47.963Z,1017.18
2019-05-29T09:54:47.834Z,1017.19
2019-05-29T09:55:47.783Z,1016.62
2019-05-29T09:56:47.735Z,1016.49
2019-05-29T09:57:47.724Z,1016.50
2019-05-29T09:58:47.710Z,1016.55
2019-05-29T09:59:47.791Z,1016.51
2019-05-29T10:00:47.707Z,1016.49
2019-05-29T10:47:47.418Z,1017.35
2019-05-29T10:48:26.107Z,1017.44
2019-05-29T10:49:26.097Z,1017.48
2019-05-29T10:50:26.105Z,1017.40
2019-05-29T10:51:26.067Z,1017.20
2019-05-29T10:52:26.042Z,1016.79
2019-05-29T10:53:26.063Z,1017.40
2019-05-29T10:54:26.038Z,1016.83
2019-05-29T10:55:26.017Z,1017.34
2019-05-29T10:56:26.006Z,1017.38
2019-05-29T10:57:25.998Z,1017.38
2019-05-29T10:58:25.989Z,1017.43
2019-05-29T10:59:25.983Z,1017.40
2019-05-29T11:00:25.963Z,1017.44
2019-05-29T11:01:25.956Z,1017.49
2019-05-29T11:02:25.945Z,1017.44
2019-05-29T11:03:25.933Z,1017.43
2019-05-29T11:04:25.998Z,1017.48
2019-05-29T11:05:25.913Z,1017.52
2019-05-29T11:06:25.904Z,1016.93
2019-05-29T11:07:25.895Z,1016.90
2019-05-29T11:08:25.888Z,1017.26
2019-05-29T11:09:25.879Z,1017.27
2019-05-29T11:10:25.878Z,1017.21
2019-05-29T11:11:25.872Z,1017.17
2019-05-29T11:12:25.841Z,1017.04
2019-05-29T11:13:25.833Z,1016.85
2019-05-29T11:14:25.819Z,1016.78
2019-05-29T11:15:25.816Z,1016.77
2019-05-29T11:16:25.814Z,1016.73
2019-05-29T11:17:25.790Z,1016.69
2019-05-29T11:18:25.811Z,1016.78
2019-05-29T11:19:26.219Z,1016.76
2019-05-29T11:20:25.762Z,1016.76
2019-05-29T11:21:25.798Z,1016.73
2019-05-29T11:22:26.761Z,1016.70
2019-05-29T11:23:25.728Z,1016.81
2019-05-29T11:24:25.720Z,1016.82
2019-05-29T11:25:27.695Z,1016.85
2019-05-29T11:26:25.698Z,1016.92
2019-05-29T11:27:26.255Z,1016.89
2019-05-29T11:28:25.713Z,1016.87
2019-05-29T11:29:25.667Z,1016.87
2019-05-29T11:30:25.654Z,1016.84
2019-05-29T11:31:25.637Z,1016.79
2019-05-29T11:32:25.630Z,1016.81
2019-05-29T11:33:25.627Z,1016.81
2019-05-29T11:34:25.649Z,1016.84
2019-05-29T11:35:25.602Z,1016.84
2019-05-29T11:36:25.585Z,1016.83
2019-05-29T11:37:25.577Z,1016.89
2019-05-29T11:38:25.568Z,1016.81
2019-05-29T11:39:25.599Z,1016.82
2019-05-29T11:40:25.573Z,1016.84
2019-05-29T11:41:26.783Z,1016.78
2019-05-29T11:42:27.874Z,1016.79
2019-05-29T11:43:25.511Z,1016.84
2019-05-29T11:44:25.507Z,1016.83
2019-05-29T11:45:25.533Z,1016.86
2019-05-29T11:46:25.554Z,1016.87
2019-05-29T11:47:25.469Z,1016.90
2019-05-29T11:48:25.456Z,1016.90
2019-05-29T11:49:25.450Z,1016.87
2019-05-29T11:50:25.454Z,1016.85
2019-05-29T11:51:25.434Z,1016.80
2019-05-29T11:52:41.788Z,1016.84
2019-05-29T11:53:26.404Z,1016.78
2019-05-29T11:54:25.392Z,1016.76
2019-05-29T11:55:25.403Z,1016.81
2019-05-29T11:56:25.393Z,1016.71
2019-05-29T11:57:25.365Z,1016.66
2019-05-29T11:58:30.962Z,1016.74
2019-05-29T11:59:26.350Z,1016.79
2019-05-29T12:00:25.335Z,1016.86
2019-05-29T12:01:25.329Z,1016.86
2019-05-29T12:02:25.313Z,1016.82
2019-05-29T12:03:25.296Z,1016.79
2019-05-29T12:04:26.802Z,1016.81
2019-05-29T12:05:25.281Z,1016.80
2019-05-29T12:06:25.276Z,1016.85
2019-05-29T12:07:25.261Z,1016.85
2019-05-29T12:08:25.239Z,1016.83
2019-05-29T12:09:32.702Z,1016.89
2019-05-29T12:10:26.221Z,1016.80
2019-05-29T12:11:25.211Z,1016.85
2019-05-29T12:12:25.221Z,1016.83
2019-05-29T12:13:25.202Z,1016.80
2019-05-29T12:14:25.227Z,1016.82
2019-05-29T12:15:25.171Z,1016.83
2019-05-29T12:16:25.163Z,1016.83
2019-05-29T12:17:25.168Z,1016.83
2019-05-29T12:18:25.140Z,1016.76
2019-05-29T12:19:25.129Z,1016.68
2019-05-29T12:20:28.213Z,1016.70
2019-05-29T12:21:25.105Z,1016.69
2019-05-29T12:22:25.101Z,1016.70
2019-05-29T12:23:26.853Z,1016.69
2019-05-29T12:24:25.072Z,1016.82
2019-05-29T12:25:25.090Z,1016.84
2019-05-29T12:26:25.049Z,1016.74
2019-05-29T12:27:25.044Z,1016.91
2019-05-29T12:28:25.041Z,1016.84
2019-05-29T12:29:25.038Z,1016.82
2019-05-29T12:30:25.011Z,1016.84
2019-05-29T12:31:25.009Z,1016.81
2019-05-29T12:32:24.985Z,1016.85
2019-05-29T12:33:24.987Z,1016.85
2019-05-29T12:34:24.973Z,1016.86
2019-05-29T12:35:24.955Z,1016.92
2019-05-29T12:36:24.955Z,1016.93
2019-05-29T12:37:24.941Z,1016.92
2019-05-29T12:38:24.939Z,1016.85
2019-05-29T12:39:24.917Z,1016.90
2019-05-29T12:40:24.927Z,1016.86
2019-05-29T12:41:24.895Z,1016.87
2019-05-29T12:42:24.880Z,1016.88
2019-05-29T12:43:27.842Z,1016.85
2019-05-29T12:44:24.864Z,1016.85
2019-05-29T12:45:24.853Z,1016.87
2019-05-29T12:46:24.837Z,1016.92
2019-05-29T12:47:24.826Z,1016.95
2019-05-29T12:48:24.882Z,1016.95
2019-05-29T12:49:24.832Z,1016.91
2019-05-29T12:50:24.797Z,1016.89
2019-05-29T12:51:24.784Z,1016.96